sensor_id;sensor_type;location;lat;lon;timestamp;P1;durP1;ratioP1;P2;durP2;ratioP2
69937;SDS011;57248;47.320;15.998;2023-04-24T00:01:42;10.68;;;5.03;;
69937;SDS011;57248;47.320;15.998;2023-04-24T00:04:14;11.15;;;5.50;;
69937;SDS011;57248;47.320;15.998;2023-04-24T00:06:48;18.20;;;6.50;;
69937;SDS011;57248;47.320;15.998;2023-04-24T00:09:26;15.63;;;6.93;;
69937;SDS011;57248;47.320;15.998;2023-04-24T00:12:04;14.70;;;7.10;;
69937;SDS011;57248;47.320;15.998;2023-04-24T00:14:36;11.88;;;5.95;;
69937;SDS011;57248;47.320;15.998;2023-04-24T00:17:16;12.23;;;5.95;;
69937;SDS011;57248;47.320;15.998;2023-04-24T00:19:51;9.97;;;5.33;;
69937;SDS011;57248;47.320;15.998;2023-04-24T00:22:30;9.85;;;4.97;;
69937;SDS011;57248;47.320;15.998;2023-04-24T00:25:02;13.82;;;5.03;;
69937;SDS011;57248;47.320;15.998;2023-04-24T00:27:34;9.52;;;5.20;;
69937;SDS011;57248;47.320;15.998;2023-04-24T00:30:09;9.60;;;4.85;;
69937;SDS011;57248;47.320;15.998;2023-04-24T00:32:41;11.13;;;5.20;;
69937;SDS011;57248;47.320;15.998;2023-04-24T00:35:13;10.75;;;5.47;;
69937;SDS011;57248;47.320;15.998;2023-04-24T00:37:46;8.70;;;5.00;;
69937;SDS011;57248;47.320;15.998;2023-04-24T00:40:18;9.98;;;5.28;;
69937;SDS011;57248;47.320;15.998;2023-04-24T00:42:50;9.10;;;4.88;;
69937;SDS011;57248;47.320;15.998;2023-04-24T00:45:22;9.57;;;5.10;;
69937;SDS011;57248;47.320;15.998;2023-04-24T00:47:55;9.25;;;4.95;;
69937;SDS011;57248;47.320;15.998;2023-04-24T00:50:28;9.15;;;5.13;;
69937;SDS011;57248;47.320;15.998;2023-04-24T00:53:00;8.85;;;4.63;;
69937;SDS011;57248;47.320;15.998;2023-04-24T00:55:26;10.53;;;5.00;;
69937;SDS011;57248;47.320;15.998;2023-04-24T00:57:57;9.93;;;5.20;;
69937;SDS011;57248;47.320;15.998;2023-04-24T01:00:29;9.27;;;5.45;;
69937;SDS011;57248;47.320;15.998;2023-04-24T01:02:56;9.53;;;5.27;;
69937;SDS011;57248;47.320;15.998;2023-04-24T01:05:31;9.38;;;4.97;;
69937;SDS011;57248;47.320;15.998;2023-04-24T01:08:05;9.35;;;5.30;;
69937;SDS011;57248;47.320;15.998;2023-04-24T01:10:37;10.52;;;5.28;;
69937;SDS011;57248;47.320;15.998;2023-04-24T01:13:19;8.35;;;4.57;;
69937;SDS011;57248;47.320;15.998;2023-04-24T01:15:53;9.13;;;5.23;;
69937;SDS011;57248;47.320;15.998;2023-04-24T01:18:26;35.40;;;6.63;;
69937;SDS011;57248;47.320;15.998;2023-04-24T01:20:59;11.77;;;5.70;;
69937;SDS011;57248;47.320;15.998;2023-04-24T01:23:35;12.73;;;5.75;;
69937;SDS011;57248;47.320;15.998;2023-04-24T01:26:07;13.50;;;5.90;;
69937;SDS011;57248;47.320;15.998;2023-04-24T01:28:39;11.13;;;5.30;;
69937;SDS011;57248;47.320;15.998;2023-04-24T01:31:11;10.60;;;5.50;;
69937;SDS011;57248;47.320;15.998;2023-04-24T01:33:43;9.95;;;5.20;;
69937;SDS011;57248;47.320;15.998;2023-04-24T01:36:15;11.23;;;5.30;;
69937;SDS011;57248;47.320;15.998;2023-04-24T01:38:48;9.18;;;4.85;;
69937;SDS011;57248;47.320;15.998;2023-04-24T01:41:20;8.53;;;4.90;;
69937;SDS011;57248;47.320;15.998;2023-04-24T01:43:53;10.07;;;5.38;;
69937;SDS011;57248;47.320;15.998;2023-04-24T01:46:26;14.25;;;5.47;;
69937;SDS011;57248;47.320;15.998;2023-04-24T01:48:59;19.38;;;6.78;;
69937;SDS011;57248;47.320;15.998;2023-04-24T01:51:31;12.68;;;6.70;;
69937;SDS011;57248;47.320;15.998;2023-04-24T01:54:03;12.57;;;6.70;;
69937;SDS011;57248;47.320;15.998;2023-04-24T01:56:36;16.48;;;7.65;;
69937;SDS011;57248;47.320;15.998;2023-04-24T01:59:12;25.35;;;9.45;;
69937;SDS011;57248;47.320;15.998;2023-04-24T02:01:44;13.05;;;7.45;;
69937;SDS011;57248;47.320;15.998;2023-04-24T02:04:18;12.05;;;6.72;;
69937;SDS011;57248;47.320;15.998;2023-04-24T02:06:49;10.80;;;6.00;;
69937;SDS011;57248;47.320;15.998;2023-04-24T02:09:23;11.65;;;6.28;;
69937;SDS011;57248;47.320;15.998;2023-04-24T02:11:49;10.88;;;5.78;;
69937;SDS011;57248;47.320;15.998;2023-04-24T02:14:23;10.50;;;5.55;;
69937;SDS011;57248;47.320;15.998;2023-04-24T02:17:02;10.05;;;5.22;;
69937;SDS011;57248;47.320;15.998;2023-04-24T02:19:35;31.50;;;5.63;;
69937;SDS011;57248;47.320;15.998;2023-04-24T02:22:09;23.50;;;6.60;;
69937;SDS011;57248;47.320;15.998;2023-04-24T02:24:41;24.13;;;7.32;;
69937;SDS011;57248;47.320;15.998;2023-04-24T02:27:14;12.70;;;6.35;;
69937;SDS011;57248;47.320;15.998;2023-04-24T02:29:46;11.00;;;5.82;;
69937;SDS011;57248;47.320;15.998;2023-04-24T02:32:18;11.63;;;5.57;;
69937;SDS011;57248;47.320;15.998;2023-04-24T02:34:50;12.68;;;5.82;;
69937;SDS011;57248;47.320;15.998;2023-04-24T02:37:22;12.52;;;6.13;;
69937;SDS011;57248;47.320;15.998;2023-04-24T02:39:54;12.35;;;5.38;;
69937;SDS011;57248;47.320;15.998;2023-04-24T02:42:26;10.18;;;5.50;;
69937;SDS011;57248;47.320;15.998;2023-04-24T02:44:58;11.70;;;5.70;;
69937;SDS011;57248;47.320;15.998;2023-04-24T02:47:30;12.05;;;6.28;;
69937;SDS011;57248;47.320;15.998;2023-04-24T02:49:56;10.93;;;5.83;;
69937;SDS011;57248;47.320;15.998;2023-04-24T02:52:27;11.67;;;5.97;;
69937;SDS011;57248;47.320;15.998;2023-04-24T02:54:59;17.20;;;7.30;;
69937;SDS011;57248;47.320;15.998;2023-04-24T02:57:31;13.95;;;7.15;;
69937;SDS011;57248;47.320;15.998;2023-04-24T03:00:03;13.73;;;7.03;;
69937;SDS011;57248;47.320;15.998;2023-04-24T03:02:38;14.60;;;7.30;;
69937;SDS011;57248;47.320;15.998;2023-04-24T03:05:10;12.50;;;6.70;;
69937;SDS011;57248;47.320;15.998;2023-04-24T03:07:43;13.35;;;7.25;;
69937;SDS011;57248;47.320;15.998;2023-04-24T03:10:16;18.10;;;7.50;;
69937;SDS011;57248;47.320;15.998;2023-04-24T03:12:55;13.18;;;6.50;;
69937;SDS011;57248;47.320;15.998;2023-04-24T03:15:27;17.05;;;7.53;;
69937;SDS011;57248;47.320;15.998;2023-04-24T03:17:59;15.93;;;7.83;;
69937;SDS011;57248;47.320;15.998;2023-04-24T03:20:26;19.50;;;9.30;;
69937;SDS011;57248;47.320;15.998;2023-04-24T03:22:58;23.17;;;8.57;;
69937;SDS011;57248;47.320;15.998;2023-04-24T03:25:31;16.13;;;7.80;;
69937;SDS011;57248;47.320;15.998;2023-04-24T03:28:03;18.45;;;8.25;;
69937;SDS011;57248;47.320;15.998;2023-04-24T03:30:41;42.03;;;8.40;;
69937;SDS011;57248;47.320;15.998;2023-04-24T03:33:15;25.70;;;7.22;;
69937;SDS011;57248;47.320;15.998;2023-04-24T03:35:56;12.63;;;6.40;;
69937;SDS011;57248;47.320;15.998;2023-04-24T03:38:36;11.77;;;5.72;;
69937;SDS011;57248;47.320;15.998;2023-04-24T03:41:30;13.32;;;6.47;;
69937;SDS011;57248;47.320;15.998;2023-04-24T03:44:10;11.17;;;5.17;;
69937;SDS011;57248;47.320;15.998;2023-04-24T03:46:42;15.65;;;5.22;;
69937;SDS011;57248;47.320;15.998;2023-04-24T03:49:14;17.45;;;5.43;;
69937;SDS011;57248;47.320;15.998;2023-04-24T03:51:46;12.93;;;5.80;;
69937;SDS011;57248;47.320;15.998;2023-04-24T03:54:24;15.45;;;6.95;;
69937;SDS011;57248;47.320;15.998;2023-04-24T03:56:57;22.10;;;7.57;;
69937;SDS011;57248;47.320;15.998;2023-04-24T03:59:31;19.10;;;7.50;;
69937;SDS011;57248;47.320;15.998;2023-04-24T04:02:16;29.45;;;8.30;;
69937;SDS011;57248;47.320;15.998;2023-04-24T04:04:49;20.05;;;7.97;;
69937;SDS011;57248;47.320;15.998;2023-04-24T04:07:21;13.43;;;5.78;;
69937;SDS011;57248;47.320;15.998;2023-04-24T04:09:55;11.20;;;5.83;;
69937;SDS011;57248;47.320;15.998;2023-04-24T04:12:26;12.32;;;5.80;;
69937;SDS011;57248;47.320;15.998;2023-04-24T04:15:12;11.88;;;6.03;;
69937;SDS011;57248;47.320;15.998;2023-04-24T04:17:45;11.60;;;6.22;;
69937;SDS011;57248;47.320;15.998;2023-04-24T04:20:11;11.52;;;5.97;;
69937;SDS011;57248;47.320;15.998;2023-04-24T04:22:43;12.90;;;6.33;;
69937;SDS011;57248;47.320;15.998;2023-04-24T04:25:23;15.45;;;7.15;;
69937;SDS011;57248;47.320;15.998;2023-04-24T04:27:54;15.30;;;7.40;;
69937;SDS011;57248;47.320;15.998;2023-04-24T04:30:27;16.27;;;8.32;;
69937;SDS011;57248;47.320;15.998;2023-04-24T04:33:02;16.48;;;7.75;;
69937;SDS011;57248;47.320;15.998;2023-04-24T04:35:35;16.90;;;8.17;;
69937;SDS011;57248;47.320;15.998;2023-04-24T04:38:08;19.27;;;8.52;;
69937;SDS011;57248;47.320;15.998;2023-04-24T04:40:47;16.52;;;7.95;;
69937;SDS011;57248;47.320;15.998;2023-04-24T04:43:21;13.65;;;6.88;;
69937;SDS011;57248;47.320;15.998;2023-04-24T04:45:53;13.18;;;6.65;;
69937;SDS011;57248;47.320;15.998;2023-04-24T04:48:46;12.40;;;6.27;;
69937;SDS011;57248;47.320;15.998;2023-04-24T04:51:18;13.18;;;7.05;;
69937;SDS011;57248;47.320;15.998;2023-04-24T04:53:51;12.82;;;6.63;;
69937;SDS011;57248;47.320;15.998;2023-04-24T04:56:23;12.85;;;6.53;;
69937;SDS011;57248;47.320;15.998;2023-04-24T04:58:58;13.98;;;6.80;;
69937;SDS011;57248;47.320;15.998;2023-04-24T05:01:30;12.00;;;6.60;;
69937;SDS011;57248;47.320;15.998;2023-04-24T05:04:02;12.32;;;6.38;;
69937;SDS011;57248;47.320;15.998;2023-04-24T05:06:36;12.20;;;6.50;;
69937;SDS011;57248;47.320;15.998;2023-04-24T05:09:08;10.23;;;5.70;;
69937;SDS011;57248;47.320;15.998;2023-04-24T05:11:49;10.85;;;6.28;;
69937;SDS011;57248;47.320;15.998;2023-04-24T05:14:31;9.70;;;5.60;;
69937;SDS011;57248;47.320;15.998;2023-04-24T05:17:03;10.23;;;5.93;;
69937;SDS011;57248;47.320;15.998;2023-04-24T05:19:36;10.07;;;6.03;;
69937;SDS011;57248;47.320;15.998;2023-04-24T05:22:09;10.43;;;5.50;;
69937;SDS011;57248;47.320;15.998;2023-04-24T05:24:48;9.77;;;5.45;;
69937;SDS011;57248;47.320;15.998;2023-04-24T05:27:31;10.10;;;5.77;;
69937;SDS011;57248;47.320;15.998;2023-04-24T05:30:11;9.57;;;5.38;;
69937;SDS011;57248;47.320;15.998;2023-04-24T05:32:43;10.80;;;5.43;;
69937;SDS011;57248;47.320;15.998;2023-04-24T05:35:15;10.57;;;5.93;;
69937;SDS011;57248;47.320;15.998;2023-04-24T05:37:47;10.30;;;6.10;;
69937;SDS011;57248;47.320;15.998;2023-04-24T05:40:20;8.60;;;5.37;;
69937;SDS011;57248;47.320;15.998;2023-04-24T05:42:52;10.50;;;5.78;;
69937;SDS011;57248;47.320;15.998;2023-04-24T05:45:24;10.10;;;6.05;;
69937;SDS011;57248;47.320;15.998;2023-04-24T05:47:57;10.07;;;5.80;;
69937;SDS011;57248;47.320;15.998;2023-04-24T05:50:28;9.00;;;5.18;;
69937;SDS011;57248;47.320;15.998;2023-04-24T05:53:00;8.73;;;5.00;;
69937;SDS011;57248;47.320;15.998;2023-04-24T05:55:37;8.15;;;4.70;;
69937;SDS011;57248;47.320;15.998;2023-04-24T05:58:02;8.32;;;5.18;;
69937;SDS011;57248;47.320;15.998;2023-04-24T06:00:36;8.63;;;4.90;;
69937;SDS011;57248;47.320;15.998;2023-04-24T06:03:08;8.73;;;5.07;;
69937;SDS011;57248;47.320;15.998;2023-04-24T06:05:42;9.05;;;5.40;;
69937;SDS011;57248;47.320;15.998;2023-04-24T06:08:13;7.90;;;5.00;;
69937;SDS011;57248;47.320;15.998;2023-04-24T06:10:47;7.40;;;4.78;;
69937;SDS011;57248;47.320;15.998;2023-04-24T06:13:27;8.30;;;5.03;;
69937;SDS011;57248;47.320;15.998;2023-04-24T06:16:20;9.10;;;4.80;;
69937;SDS011;57248;47.320;15.998;2023-04-24T06:18:58;7.57;;;4.53;;
69937;SDS011;57248;47.320;15.998;2023-04-24T06:21:30;8.20;;;5.20;;
69937;SDS011;57248;47.320;15.998;2023-04-24T06:24:02;7.88;;;4.63;;
69937;SDS011;57248;47.320;15.998;2023-04-24T06:26:30;7.60;;;4.70;;
69937;SDS011;57248;47.320;15.998;2023-04-24T06:29:06;6.80;;;4.50;;
69937;SDS011;57248;47.320;15.998;2023-04-24T06:31:32;8.52;;;4.82;;
69937;SDS011;57248;47.320;15.998;2023-04-24T06:34:09;9.93;;;4.78;;
69937;SDS011;57248;47.320;15.998;2023-04-24T06:36:41;8.25;;;4.68;;
69937;SDS011;57248;47.320;15.998;2023-04-24T06:39:13;11.53;;;4.83;;
69937;SDS011;57248;47.320;15.998;2023-04-24T06:41:45;11.10;;;5.15;;
69937;SDS011;57248;47.320;15.998;2023-04-24T06:44:19;9.52;;;4.88;;
69937;SDS011;57248;47.320;15.998;2023-04-24T06:46:51;8.60;;;5.00;;
69937;SDS011;57248;47.320;15.998;2023-04-24T06:49:23;8.77;;;4.78;;
69937;SDS011;57248;47.320;15.998;2023-04-24T06:51:55;8.13;;;4.90;;
69937;SDS011;57248;47.320;15.998;2023-04-24T06:54:28;9.30;;;5.38;;
69937;SDS011;57248;47.320;15.998;2023-04-24T06:57:02;9.85;;;5.05;;
69937;SDS011;57248;47.320;15.998;2023-04-24T06:59:33;8.48;;;5.25;;
69937;SDS011;57248;47.320;15.998;2023-04-24T07:02:06;8.57;;;5.07;;
69937;SDS011;57248;47.320;15.998;2023-04-24T07:04:37;9.80;;;5.83;;
69937;SDS011;57248;47.320;15.998;2023-04-24T07:07:09;9.57;;;5.72;;
69937;SDS011;57248;47.320;15.998;2023-04-24T07:09:45;10.57;;;5.65;;
69937;SDS011;57248;47.320;15.998;2023-04-24T07:12:17;10.85;;;6.22;;
69937;SDS011;57248;47.320;15.998;2023-04-24T07:14:51;12.38;;;7.18;;
69937;SDS011;57248;47.320;15.998;2023-04-24T07:17:23;10.47;;;6.40;;
69937;SDS011;57248;47.320;15.998;2023-04-24T07:19:55;13.98;;;8.38;;
69937;SDS011;57248;47.320;15.998;2023-04-24T07:22:27;27.38;;;15.52;;
69937;SDS011;57248;47.320;15.998;2023-04-24T07:24:59;51.15;;;27.20;;
69937;SDS011;57248;47.320;15.998;2023-04-24T07:27:25;31.33;;;17.83;;
69937;SDS011;57248;47.320;15.998;2023-04-24T07:29:56;22.42;;;14.88;;
69937;SDS011;57248;47.320;15.998;2023-04-24T07:32:28;16.48;;;10.65;;
69937;SDS011;57248;47.320;15.998;2023-04-24T07:35:00;11.03;;;7.13;;
69937;SDS011;57248;47.320;15.998;2023-04-24T07:37:32;12.73;;;6.68;;
69937;SDS011;57248;47.320;15.998;2023-04-24T07:40:05;11.50;;;6.35;;
69937;SDS011;57248;47.320;15.998;2023-04-24T07:42:37;9.57;;;5.80;;
69937;SDS011;57248;47.320;15.998;2023-04-24T07:45:09;9.23;;;5.65;;
69937;SDS011;57248;47.320;15.998;2023-04-24T07:47:43;8.67;;;5.10;;
69937;SDS011;57248;47.320;15.998;2023-04-24T07:50:17;8.82;;;4.95;;
69937;SDS011;57248;47.320;15.998;2023-04-24T07:52:49;8.98;;;5.10;;
69937;SDS011;57248;47.320;15.998;2023-04-24T07:55:23;15.60;;;8.88;;
69937;SDS011;57248;47.320;15.998;2023-04-24T07:57:55;16.27;;;9.43;;
69937;SDS011;57248;47.320;15.998;2023-04-24T08:00:27;9.23;;;5.03;;
69937;SDS011;57248;47.320;15.998;2023-04-24T08:02:59;7.72;;;5.40;;
69937;SDS011;57248;47.320;15.998;2023-04-24T08:05:33;7.35;;;4.85;;
69937;SDS011;57248;47.320;15.998;2023-04-24T08:08:04;9.27;;;5.78;;
69937;SDS011;57248;47.320;15.998;2023-04-24T08:10:37;9.15;;;5.68;;
69937;SDS011;57248;47.320;15.998;2023-04-24T08:13:09;8.10;;;5.80;;
69937;SDS011;57248;47.320;15.998;2023-04-24T08:15:56;8.73;;;5.88;;
69937;SDS011;57248;47.320;15.998;2023-04-24T08:18:28;9.98;;;5.32;;
69937;SDS011;57248;47.320;15.998;2023-04-24T08:21:00;7.35;;;4.85;;
69937;SDS011;57248;47.320;15.998;2023-04-24T08:23:26;8.47;;;4.53;;
69937;SDS011;57248;47.320;15.998;2023-04-24T08:25:58;8.18;;;4.97;;
69937;SDS011;57248;47.320;15.998;2023-04-24T08:28:30;11.18;;;5.20;;
69937;SDS011;57248;47.320;15.998;2023-04-24T08:31:02;7.93;;;5.07;;
69937;SDS011;57248;47.320;15.998;2023-04-24T08:33:34;9.27;;;5.53;;
69937;SDS011;57248;47.320;15.998;2023-04-24T08:36:06;8.52;;;5.35;;
69937;SDS011;57248;47.320;15.998;2023-04-24T08:38:39;9.35;;;5.53;;
69937;SDS011;57248;47.320;15.998;2023-04-24T08:41:11;12.93;;;7.35;;
69937;SDS011;57248;47.320;15.998;2023-04-24T08:43:46;10.17;;;6.23;;
69937;SDS011;57248;47.320;15.998;2023-04-24T08:46:18;10.13;;;5.70;;
69937;SDS011;57248;47.320;15.998;2023-04-24T08:48:51;8.57;;;5.55;;
69937;SDS011;57248;47.320;15.998;2023-04-24T08:51:24;12.32;;;7.22;;
69937;SDS011;57248;47.320;15.998;2023-04-24T08:53:57;12.13;;;7.05;;
69937;SDS011;57248;47.320;15.998;2023-04-24T08:56:23;10.73;;;6.47;;
69937;SDS011;57248;47.320;15.998;2023-04-24T08:58:55;9.90;;;6.28;;
69937;SDS011;57248;47.320;15.998;2023-04-24T09:01:28;12.73;;;7.00;;
69937;SDS011;57248;47.320;15.998;2023-04-24T09:04:03;12.23;;;7.40;;
69937;SDS011;57248;47.320;15.998;2023-04-24T09:06:36;12.23;;;7.32;;
69937;SDS011;57248;47.320;15.998;2023-04-24T09:09:09;10.48;;;6.22;;
69937;SDS011;57248;47.320;15.998;2023-04-24T09:11:44;10.50;;;5.95;;
69937;SDS011;57248;47.320;15.998;2023-04-24T09:14:16;9.25;;;6.15;;
69937;SDS011;57248;47.320;15.998;2023-04-24T09:16:55;10.40;;;6.57;;
69937;SDS011;57248;47.320;15.998;2023-04-24T09:19:28;10.00;;;5.97;;
69937;SDS011;57248;47.320;15.998;2023-04-24T09:22:04;8.40;;;5.20;;
69937;SDS011;57248;47.320;15.998;2023-04-24T09:24:39;10.63;;;6.18;;
69937;SDS011;57248;47.320;15.998;2023-04-24T09:27:10;9.25;;;5.60;;
69937;SDS011;57248;47.320;15.998;2023-04-24T09:30:04;11.77;;;6.43;;
69937;SDS011;57248;47.320;15.998;2023-04-24T09:32:36;9.77;;;6.22;;
69937;SDS011;57248;47.320;15.998;2023-04-24T09:37:45;9.60;;;5.53;;
69937;SDS011;57248;47.320;15.998;2023-04-24T09:40:20;11.18;;;5.47;;
69937;SDS011;57248;47.320;15.998;2023-04-24T09:42:55;7.90;;;4.37;;
69937;SDS011;57248;47.320;15.998;2023-04-24T09:45:36;5.05;;;1.73;;
69937;SDS011;57248;47.320;15.998;2023-04-24T09:48:09;3.92;;;0.70;;
69937;SDS011;57248;47.320;15.998;2023-04-24T09:50:35;2.40;;;0.50;;
69937;SDS011;57248;47.320;15.998;2023-04-24T09:53:06;1.85;;;0.10;;
69937;SDS011;57248;47.320;15.998;2023-04-24T09:55:42;1.47;;;0.10;;
69937;SDS011;57248;47.320;15.998;2023-04-24T09:58:17;0.75;;;0.10;;
69937;SDS011;57248;47.320;15.998;2023-04-24T10:00:49;0.85;;;0.10;;
69937;SDS011;57248;47.320;15.998;2023-04-24T10:03:25;1.77;;;0.10;;
69937;SDS011;57248;47.320;15.998;2023-04-24T10:05:59;1.77;;;0.30;;
69937;SDS011;57248;47.320;15.998;2023-04-24T10:08:35;1.67;;;0.20;;
69937;SDS011;57248;47.320;15.998;2023-04-24T10:11:07;1.25;;;0.13;;
69937;SDS011;57248;47.320;15.998;2023-04-24T10:13:46;1.30;;;0.20;;
69937;SDS011;57248;47.320;15.998;2023-04-24T10:16:20;2.22;;;0.30;;
69937;SDS011;57248;47.320;15.998;2023-04-24T10:18:53;3.70;;;0.30;;
69937;SDS011;57248;47.320;15.998;2023-04-24T10:21:27;1.37;;;0.10;;
69937;SDS011;57248;47.320;15.998;2023-04-24T10:23:59;1.92;;;0.10;;
69937;SDS011;57248;47.320;15.998;2023-04-24T10:26:31;1.33;;;0.13;;
69937;SDS011;57248;47.320;15.998;2023-04-24T10:29:05;1.65;;;0.20;;
69937;SDS011;57248;47.320;15.998;2023-04-24T10:31:43;1.02;;;0.10;;
69937;SDS011;57248;47.320;15.998;2023-04-24T10:34:19;2.13;;;0.20;;
69937;SDS011;57248;47.320;15.998;2023-04-24T10:36:51;2.17;;;0.10;;
69937;SDS011;57248;47.320;15.998;2023-04-24T10:39:25;1.25;;;0.20;;
69937;SDS011;57248;47.320;15.998;2023-04-24T10:41:57;1.75;;;0.20;;
69937;SDS011;57248;47.320;15.998;2023-04-24T10:44:36;1.58;;;0.13;;
69937;SDS011;57248;47.320;15.998;2023-04-24T10:47:12;0.83;;;0.10;;
69937;SDS011;57248;47.320;15.998;2023-04-24T10:49:45;1.30;;;0.10;;
69937;SDS011;57248;47.320;15.998;2023-04-24T10:52:17;1.05;;;0.10;;
69937;SDS011;57248;47.320;15.998;2023-04-24T10:54:50;3.47;;;0.28;;
69937;SDS011;57248;47.320;15.998;2023-04-24T10:57:26;1.77;;;0.10;;
69937;SDS011;57248;47.320;15.998;2023-04-24T11:00:10;1.07;;;0.10;;
69937;SDS011;57248;47.320;15.998;2023-04-24T11:02:45;3.00;;;0.10;;
69937;SDS011;57248;47.320;15.998;2023-04-24T11:05:21;1.92;;;0.20;;
69937;SDS011;57248;47.320;15.998;2023-04-24T11:11:09;0.68;;;0.10;;
69937;SDS011;57248;47.320;15.998;2023-04-24T11:19:17;2.03;;;0.10;;
69937;SDS011;57248;47.320;15.998;2023-04-24T11:22:04;2.55;;;0.40;;
69937;SDS011;57248;47.320;15.998;2023-04-24T11:27:30;3.67;;;1.10;;
69937;SDS011;57248;47.320;15.998;2023-04-24T11:30:04;4.75;;;1.55;;
69937;SDS011;57248;47.320;15.998;2023-04-24T11:32:39;3.88;;;1.10;;
69937;SDS011;57248;47.320;15.998;2023-04-24T11:35:18;10.60;;;5.22;;
69937;SDS011;57248;47.320;15.998;2023-04-24T11:37:58;15.07;;;8.15;;
69937;SDS011;57248;47.320;15.998;2023-04-24T11:40:34;15.13;;;8.10;;
69937;SDS011;57248;47.320;15.998;2023-04-24T11:43:06;10.20;;;5.70;;
69937;SDS011;57248;47.320;15.998;2023-04-24T11:45:37;6.70;;;2.90;;
69937;SDS011;57248;47.320;15.998;2023-04-24T11:48:11;2.38;;;0.50;;
69937;SDS011;57248;47.320;15.998;2023-04-24T11:50:45;1.92;;;0.40;;
69937;SDS011;57248;47.320;15.998;2023-04-24T11:53:20;1.77;;;0.50;;
69937;SDS011;57248;47.320;15.998;2023-04-24T11:55:53;2.05;;;0.50;;
69937;SDS011;57248;47.320;15.998;2023-04-24T11:58:26;1.88;;;0.50;;
69937;SDS011;57248;47.320;15.998;2023-04-24T12:00:59;3.42;;;0.75;;
69937;SDS011;57248;47.320;15.998;2023-04-24T12:03:33;2.10;;;0.65;;
69937;SDS011;57248;47.320;15.998;2023-04-24T12:06:05;3.60;;;1.30;;
69937;SDS011;57248;47.320;15.998;2023-04-24T12:08:41;2.50;;;0.70;;
69937;SDS011;57248;47.320;15.998;2023-04-24T12:11:14;3.63;;;0.88;;
69937;SDS011;57248;47.320;15.998;2023-04-24T12:13:54;2.70;;;0.50;;
69937;SDS011;57248;47.320;15.998;2023-04-24T12:16:32;3.75;;;0.65;;
69937;SDS011;57248;47.320;15.998;2023-04-24T12:19:11;3.43;;;0.80;;
69937;SDS011;57248;47.320;15.998;2023-04-24T12:21:58;3.33;;;0.80;;
69937;SDS011;57248;47.320;15.998;2023-04-24T12:24:32;4.18;;;1.00;;
69937;SDS011;57248;47.320;15.998;2023-04-24T12:27:04;2.15;;;0.60;;
69937;SDS011;57248;47.320;15.998;2023-04-24T12:29:37;2.95;;;0.45;;
69937;SDS011;57248;47.320;15.998;2023-04-24T12:32:32;2.53;;;0.40;;
69937;SDS011;57248;47.320;15.998;2023-04-24T12:35:05;4.13;;;0.60;;
69937;SDS011;57248;47.320;15.998;2023-04-24T12:38:08;3.65;;;0.60;;
69937;SDS011;57248;47.320;15.998;2023-04-24T12:40:42;2.53;;;0.68;;
69937;SDS011;57248;47.320;15.998;2023-04-24T12:43:15;2.88;;;0.47;;
69937;SDS011;57248;47.320;15.998;2023-04-24T12:46:07;2.53;;;0.40;;
69937;SDS011;57248;47.320;15.998;2023-04-24T12:48:39;2.63;;;0.55;;
69937;SDS011;57248;47.320;15.998;2023-04-24T12:51:11;1.42;;;0.28;;
69937;SDS011;57248;47.320;15.998;2023-04-24T12:53:43;2.65;;;0.70;;
69937;SDS011;57248;47.320;15.998;2023-04-24T12:56:15;2.65;;;0.30;;
69937;SDS011;57248;47.320;15.998;2023-04-24T12:58:40;1.30;;;0.30;;
69937;SDS011;57248;47.320;15.998;2023-04-24T13:01:13;2.80;;;0.20;;
69937;SDS011;57248;47.320;15.998;2023-04-24T13:03:45;1.40;;;0.10;;
69937;SDS011;57248;47.320;15.998;2023-04-24T13:06:10;1.80;;;0.23;;
69937;SDS011;57248;47.320;15.998;2023-04-24T13:08:42;1.48;;;0.25;;
69937;SDS011;57248;47.320;15.998;2023-04-24T13:11:14;1.10;;;0.10;;
69937;SDS011;57248;47.320;15.998;2023-04-24T13:13:52;1.40;;;0.10;;
69937;SDS011;57248;47.320;15.998;2023-04-24T13:16:25;1.58;;;0.20;;
69937;SDS011;57248;47.320;15.998;2023-04-24T13:18:57;2.40;;;0.30;;
69937;SDS011;57248;47.320;15.998;2023-04-24T13:21:29;1.35;;;0.20;;
69937;SDS011;57248;47.320;15.998;2023-04-24T13:23:55;1.27;;;0.20;;
69937;SDS011;57248;47.320;15.998;2023-04-24T13:26:28;1.43;;;0.20;;
69937;SDS011;57248;47.320;15.998;2023-04-24T13:29:00;1.25;;;0.10;;
69937;SDS011;57248;47.320;15.998;2023-04-24T13:31:32;1.38;;;0.17;;
69937;SDS011;57248;47.320;15.998;2023-04-24T13:34:04;0.98;;;0.10;;
69937;SDS011;57248;47.320;15.998;2023-04-24T13:36:36;1.65;;;0.20;;
69937;SDS011;57248;47.320;15.998;2023-04-24T13:39:08;1.47;;;0.10;;
69937;SDS011;57248;47.320;15.998;2023-04-24T13:41:40;1.35;;;0.20;;
69937;SDS011;57248;47.320;15.998;2023-04-24T13:44:13;2.42;;;0.20;;
69937;SDS011;57248;47.320;15.998;2023-04-24T13:46:46;1.40;;;0.20;;
69937;SDS011;57248;47.320;15.998;2023-04-24T13:49:13;3.13;;;0.40;;
69937;SDS011;57248;47.320;15.998;2023-04-24T13:51:46;1.23;;;0.20;;
69937;SDS011;57248;47.320;15.998;2023-04-24T13:54:20;1.45;;;0.30;;
69937;SDS011;57248;47.320;15.998;2023-04-24T13:56:55;2.15;;;0.20;;
69937;SDS011;57248;47.320;15.998;2023-04-24T13:59:29;2.10;;;0.30;;
69937;SDS011;57248;47.320;15.998;2023-04-24T14:02:01;1.05;;;0.10;;
69937;SDS011;57248;47.320;15.998;2023-04-24T14:04:26;1.07;;;0.20;;
69937;SDS011;57248;47.320;15.998;2023-04-24T14:07:00;1.27;;;0.10;;
69937;SDS011;57248;47.320;15.998;2023-04-24T14:09:34;0.90;;;0.17;;
69937;SDS011;57248;47.320;15.998;2023-04-24T14:12:06;1.30;;;0.13;;
69937;SDS011;57248;47.320;15.998;2023-04-24T14:14:38;0.95;;;0.15;;
69937;SDS011;57248;47.320;15.998;2023-04-24T14:17:18;1.20;;;0.20;;
69937;SDS011;57248;47.320;15.998;2023-04-24T14:19:43;0.93;;;0.20;;
69937;SDS011;57248;47.320;15.998;2023-04-24T14:22:16;1.00;;;0.20;;
69937;SDS011;57248;47.320;15.998;2023-04-24T14:24:49;1.20;;;0.20;;
69937;SDS011;57248;47.320;15.998;2023-04-24T14:27:21;1.63;;;0.32;;
69937;SDS011;57248;47.320;15.998;2023-04-24T14:29:53;1.50;;;0.20;;
69937;SDS011;57248;47.320;15.998;2023-04-24T14:32:25;1.55;;;0.30;;
69937;SDS011;57248;47.320;15.998;2023-04-24T14:34:58;1.10;;;0.20;;
69937;SDS011;57248;47.320;15.998;2023-04-24T14:37:30;0.90;;;0.10;;
69937;SDS011;57248;47.320;15.998;2023-04-24T14:39:55;2.30;;;0.10;;
69937;SDS011;57248;47.320;15.998;2023-04-24T14:42:28;0.90;;;0.10;;
69937;SDS011;57248;47.320;15.998;2023-04-24T14:45:01;1.17;;;0.13;;
69937;SDS011;57248;47.320;15.998;2023-04-24T14:47:33;1.77;;;0.20;;
69937;SDS011;57248;47.320;15.998;2023-04-24T14:50:05;2.65;;;0.20;;
69937;SDS011;57248;47.320;15.998;2023-04-24T14:52:38;1.80;;;0.22;;
69937;SDS011;57248;47.320;15.998;2023-04-24T14:55:11;2.33;;;0.63;;
69937;SDS011;57248;47.320;15.998;2023-04-24T14:57:44;1.45;;;0.30;;
69937;SDS011;57248;47.320;15.998;2023-04-24T15:00:16;2.00;;;0.30;;
69937;SDS011;57248;47.320;15.998;2023-04-24T15:02:49;1.08;;;0.20;;
69937;SDS011;57248;47.320;15.998;2023-04-24T15:05:21;2.03;;;0.30;;
69937;SDS011;57248;47.320;15.998;2023-04-24T15:07:54;1.00;;;0.20;;
69937;SDS011;57248;47.320;15.998;2023-04-24T15:10:26;1.35;;;0.45;;
69937;SDS011;57248;47.320;15.998;2023-04-24T15:13:04;1.55;;;0.20;;
69937;SDS011;57248;47.320;15.998;2023-04-24T15:15:37;0.90;;;0.20;;
69937;SDS011;57248;47.320;15.998;2023-04-24T15:18:16;1.05;;;0.22;;
69937;SDS011;57248;47.320;15.998;2023-04-24T15:20:48;1.43;;;0.20;;